createdAt,value
2018-09-08T00:01:44.119Z,73.30
2018-09-08T00:04:12.439Z,73.10
2018-09-08T00:06:40.744Z,73.30
2018-09-08T00:09:09.804Z,73.50
2018-09-08T00:11:38.394Z,73.60
2018-09-08T00:14:06.802Z,73.70
2018-09-08T00:16:40.503Z,74.00
2018-09-08T00:19:14.095Z,74.40
2018-09-08T00:21:47.664Z,73.90
2018-09-08T00:24:21.399Z,74.20
2018-09-08T00:26:48.962Z,74.20
2018-09-08T00:29:27.645Z,73.80
2018-09-08T00:31:57.170Z,73.50
2018-09-08T00:34:25.511Z,73.30
2018-09-08T00:36:53.833Z,73.50
2018-09-08T00:39:22.171Z,74.20
2018-09-08T00:41:50.491Z,73.60
2018-09-08T00:44:18.832Z,73.40
2018-09-08T00:46:47.153Z,73.50
2018-09-08T00:49:15.492Z,73.20
2018-09-08T00:51:43.809Z,73.30
2018-09-08T00:54:12.153Z,73.30
2018-09-08T00:56:40.466Z,73.20
2018-09-08T00:59:08.796Z,73.00
2018-09-08T01:01:37.168Z,73.20
2018-09-08T01:04:05.508Z,73.20
2018-09-08T01:06:33.824Z,73.40
2018-09-08T01:09:02.177Z,73.10
2018-09-08T01:11:30.495Z,73.30
2018-09-08T01:13:58.820Z,73.10
2018-09-08T01:16:27.153Z,73.20
2018-09-08T01:18:55.492Z,73.40
2018-09-08T01:21:23.802Z,73.20
2018-09-08T01:23:53.398Z,73.30
2018-09-08T01:26:22.379Z,73.70
2018-09-08T01:28:51.528Z,74.00
2018-09-08T01:31:20.431Z,74.20
2018-09-08T01:33:48.745Z,74.30
2018-09-08T01:36:17.044Z,74.60
2018-09-08T01:38:45.370Z,74.70
2018-09-08T01:41:13.698Z,74.70
2018-09-08T01:43:42.023Z,74.70
2018-09-08T01:46:10.360Z,74.80
2018-09-08T01:48:38.732Z,74.60
2018-09-08T01:51:07.395Z,74.60
2018-09-08T01:53:35.707Z,74.30
2018-09-08T01:56:04.021Z,74.00
2018-09-08T01:58:32.344Z,73.70
2018-09-08T02:01:00.676Z,73.70
2018-09-08T02:03:29.025Z,73.40
2018-09-08T02:05:57.410Z,73.60
2018-09-08T02:08:25.762Z,73.60
2018-09-08T02:10:54.077Z,73.20
2018-09-08T02:13:22.414Z,72.90
2018-09-08T02:15:50.720Z,72.70
2018-09-08T02:18:19.085Z,72.70
2018-09-08T02:20:47.389Z,72.50
2018-09-08T02:23:15.741Z,72.50
2018-09-08T02:25:44.070Z,72.00
2018-09-08T02:28:12.393Z,71.70
2018-09-08T02:30:40.717Z,71.70
2018-09-08T02:33:09.018Z,72.00
2018-09-08T02:35:37.341Z,71.70
2018-09-08T02:38:05.645Z,71.90
2018-09-08T02:40:33.978Z,72.50
2018-09-08T02:43:02.301Z,71.80
2018-09-08T02:45:30.642Z,71.80
2018-09-08T02:47:58.965Z,71.80
2018-09-08T02:50:35.426Z,71.70
2018-09-08T02:53:03.302Z,71.90
2018-09-08T02:55:31.211Z,72.10
2018-09-08T02:57:58.888Z,71.80
2018-09-08T03:00:26.890Z,72.20
2018-09-08T03:02:54.284Z,71.80
2018-09-08T03:05:21.774Z,71.90
2018-09-08T03:07:49.203Z,72.20
2018-09-08T03:10:16.856Z,72.20
2018-09-08T03:12:44.169Z,72.70
2018-09-08T03:15:11.497Z,72.80
2018-09-08T03:17:38.818Z,72.70
2018-09-08T03:20:06.144Z,73.00
2018-09-08T03:22:33.456Z,73.40
2018-09-08T03:25:00.880Z,73.40
2018-09-08T03:27:28.196Z,73.40
2018-09-08T03:29:55.525Z,74.00
2018-09-08T03:32:22.825Z,74.10
2018-09-08T03:34:50.153Z,74.10
2018-09-08T03:37:17.452Z,74.00
2018-09-08T03:39:44.788Z,73.90
2018-09-08T03:42:12.093Z,73.90
2018-09-08T03:44:39.417Z,74.10
2018-09-08T03:47:06.727Z,74.30
2018-09-08T03:49:34.048Z,74.60
2018-09-08T03:52:01.348Z,74.50
2018-09-08T03:54:28.667Z,74.40
2018-09-08T03:56:55.972Z,74.60
2018-09-08T03:59:23.298Z,74.90
2018-09-08T04:01:50.605Z,74.90
2018-09-08T04:04:18.930Z,75.40
2018-09-08T04:06:47.249Z,75.10
2018-09-08T04:09:15.612Z,75.10
2018-09-08T04:11:43.917Z,74.80
2018-09-08T04:14:12.267Z,74.60
2018-09-08T04:16:40.594Z,74.60
2018-09-08T04:19:08.908Z,75.00
2018-09-08T04:21:37.237Z,75.20
2018-09-08T04:24:05.638Z,75.50
2018-09-08T04:26:34.064Z,75.90
2018-09-08T04:29:02.386Z,75.60
2018-09-08T04:31:30.729Z,75.50
2018-09-08T04:33:59.973Z,75.60
2018-09-08T04:36:28.301Z,75.90
2018-09-08T04:38:56.602Z,75.90
2018-09-08T04:41:24.920Z,75.60
2018-09-08T04:43:53.232Z,75.60
2018-09-08T04:46:21.588Z,75.70
2018-09-08T04:48:49.901Z,76.00
2018-09-08T04:51:18.266Z,76.10
2018-09-08T04:53:46.586Z,76.40
2018-09-08T04:56:14.945Z,76.40
2018-09-08T04:58:43.265Z,76.30
2018-09-08T05:01:11.589Z,76.40
2018-09-08T05:03:39.897Z,76.70
2018-09-08T05:06:08.226Z,76.80
2018-09-08T05:08:36.569Z,76.70
2018-09-08T05:11:04.929Z,76.90
2018-09-08T05:13:33.257Z,77.10
2018-09-08T05:16:01.615Z,77.30
2018-09-08T05:18:29.918Z,77.50
2018-09-08T05:20:58.253Z,77.70
2018-09-08T05:23:26.599Z,77.90
2018-09-08T05:25:54.936Z,78.10
2018-09-08T05:28:23.269Z,78.20
2018-09-08T05:37:50.540Z,78.30
2018-09-08T05:40:18.873Z,78.50
2018-09-08T05:42:47.315Z,78.50
2018-09-08T05:45:15.626Z,78.80
2018-09-08T05:47:43.933Z,79.00
2018-09-08T05:50:12.280Z,79.20
2018-09-08T05:52:40.589Z,79.60
2018-09-08T05:55:08.924Z,79.90
2018-09-08T05:57:37.223Z,80.10
2018-09-08T06:00:05.565Z,80.00
2018-09-08T06:02:33.876Z,81.10
2018-09-08T06:05:02.210Z,80.30
2018-09-08T06:07:30.545Z,80.30
2018-09-08T06:09:58.873Z,80.60
2018-09-08T06:12:27.193Z,80.60
2018-09-08T06:14:55.538Z,80.70
2018-09-08T06:17:23.903Z,80.80
2018-09-08T06:19:52.214Z,80.70
2018-09-08T06:22:20.564Z,80.60
2018-09-08T06:24:48.881Z,80.70
2018-09-08T06:27:17.221Z,80.40
2018-09-08T06:29:45.538Z,80.30
2018-09-08T06:32:13.879Z,80.00
2018-09-08T06:34:42.182Z,79.80
2018-09-08T06:37:10.527Z,80.00
2018-09-08T06:39:38.858Z,79.70
2018-09-08T06:42:07.190Z,79.20
2018-09-08T06:44:35.490Z,78.70
2018-09-08T06:47:03.816Z,78.70
2018-09-08T06:49:32.121Z,78.70
2018-09-08T06:52:00.457Z,78.30
2018-09-08T06:54:29.460Z,77.60
2018-09-08T06:56:57.805Z,77.70
2018-09-08T06:59:26.112Z,77.80
2018-09-08T07:01:54.441Z,77.90
2018-09-08T07:04:22.781Z,77.00
2018-09-08T07:06:51.131Z,76.50
2018-09-08T07:09:19.461Z,76.30
2018-09-08T07:11:47.861Z,75.90
2018-09-08T07:14:16.202Z,75.90
2018-09-08T07:16:44.533Z,76.00
2018-09-08T07:19:12.854Z,75.70
2018-09-08T07:21:41.185Z,75.90
2018-09-08T07:24:09.489Z,74.60
2018-09-08T07:26:37.821Z,74.80
2018-09-08T07:29:06.129Z,74.70
2018-09-08T07:31:34.449Z,73.80
2018-09-08T07:34:02.764Z,73.30
2018-09-08T07:36:31.138Z,73.80
2018-09-08T07:38:59.476Z,73.20
2018-09-08T07:41:27.804Z,71.20
2018-09-08T07:43:56.133Z,70.60
2018-09-08T07:46:24.466Z,70.60
2018-09-08T07:48:52.810Z,70.20
2018-09-08T07:51:21.155Z,69.20
2018-09-08T07:53:49.534Z,68.40
2018-09-08T07:56:17.861Z,68.30
2018-09-08T07:58:46.180Z,68.10
2018-09-08T08:01:14.500Z,67.60
2018-09-08T08:03:42.813Z,67.30
2018-09-08T08:06:11.149Z,67.40
2018-09-08T08:08:39.494Z,67.30
2018-09-08T08:11:07.857Z,67.50
2018-09-08T08:13:36.172Z,67.30
2018-09-08T08:16:04.542Z,68.10
2018-09-08T08:18:32.861Z,67.30
2018-09-08T08:21:01.233Z,67.10
2018-09-08T08:23:29.609Z,66.60
2018-09-08T08:25:57.937Z,67.00
2018-09-08T08:28:26.370Z,66.30
2018-09-08T08:30:54.697Z,66.70
2018-09-08T08:33:23.028Z,66.30
2018-09-08T08:35:51.349Z,65.90
2018-09-08T08:38:19.678Z,65.00
2018-09-08T08:40:47.985Z,65.20
2018-09-08T08:43:16.363Z,65.00
2018-09-08T08:45:44.681Z,64.70
2018-09-08T08:48:13.005Z,64.00
2018-09-08T08:50:52.681Z,64.00
2018-09-08T08:53:32.782Z,62.20
2018-09-08T08:56:01.174Z,62.10
2018-09-08T08:58:29.526Z,62.30
2018-09-08T09:00:57.857Z,62.00
2018-09-08T09:03:26.186Z,61.70
2018-09-08T09:05:54.510Z,62.10
2018-09-08T09:08:23.034Z,60.00
2018-09-08T09:10:51.243Z,60.40
2018-09-08T09:13:19.598Z,60.50
2018-09-08T09:15:47.941Z,59.60
2018-09-08T09:19:29.445Z,60.00
2018-09-08T09:22:09.095Z,59.10
2018-09-08T09:25:56.053Z,58.60
2018-09-08T09:28:24.406Z,58.10
2018-09-08T09:30:52.718Z,58.70
2018-09-08T09:33:21.033Z,58.00
2018-09-08T09:35:49.350Z,58.90
2018-09-08T09:38:17.678Z,57.90
2018-09-08T09:40:45.989Z,57.50
2018-09-08T09:43:14.342Z,57.90
2018-09-08T09:45:42.710Z,57.50
2018-09-08T09:48:11.035Z,56.70
2018-09-08T09:50:39.343Z,55.80
2018-09-08T09:53:07.680Z,55.60
2018-09-08T09:55:36.001Z,55.60
2018-09-08T09:58:04.443Z,56.20
2018-09-08T10:00:38.071Z,56.00
2018-09-08T10:03:06.447Z,54.40
2018-09-08T10:05:35.750Z,54.10
2018-09-08T10:08:04.122Z,54.80
2018-09-08T10:10:32.445Z,55.20
2018-09-08T10:13:00.776Z,54.70
2018-09-08T10:15:29.242Z,53.60
2018-09-08T10:17:57.589Z,52.80
2018-09-08T10:20:25.922Z,53.00
2018-09-08T10:22:54.428Z,53.30
2018-09-08T10:25:22.741Z,53.20
2018-09-08T10:27:51.087Z,53.10
2018-09-08T10:30:19.452Z,53.00
2018-09-08T10:32:48.024Z,52.80
2018-09-08T10:35:16.433Z,52.70
2018-09-08T10:37:44.762Z,52.80
2018-09-08T10:40:19.673Z,52.80
2018-09-08T10:42:47.973Z,52.50
2018-09-08T10:45:16.287Z,53.30
2018-09-08T10:47:44.636Z,53.70
2018-09-08T10:50:13.037Z,53.30
2018-09-08T10:52:46.331Z,52.30
2018-09-08T10:55:14.633Z,52.90
2018-09-08T10:57:49.642Z,51.60
2018-09-08T11:00:17.963Z,52.60
2018-09-08T11:02:46.477Z,50.40
2018-09-08T11:05:14.634Z,49.80
2018-09-08T11:07:42.958Z,49.70
2018-09-08T11:10:11.288Z,49.60
2018-09-08T11:12:39.617Z,49.40
2018-09-08T11:15:08.954Z,49.50
2018-09-08T11:17:37.328Z,48.00
2018-09-08T11:20:06.580Z,47.20
2018-09-08T11:22:34.984Z,47.20
2018-09-08T11:25:03.303Z,46.90
2018-09-08T11:27:31.745Z,46.50
2018-09-08T11:30:00.109Z,46.30
2018-09-08T11:32:28.440Z,46.10
2018-09-08T11:34:56.775Z,46.50
2018-09-08T11:37:25.087Z,45.00
2018-09-08T11:39:54.497Z,45.30
2018-09-08T11:42:22.879Z,45.30
2018-09-08T11:44:51.247Z,44.30
2018-09-08T11:47:19.541Z,45.20
2018-09-08T11:49:47.873Z,45.00
2018-09-08T11:52:16.188Z,44.70
2018-09-08T11:54:44.535Z,44.90
2018-09-08T11:57:12.867Z,44.10
2018-09-08T11:59:41.257Z,43.40
2018-09-08T12:02:09.613Z,43.80
2018-09-08T12:04:37.915Z,44.00
2018-09-08T12:07:06.695Z,44.00
2018-09-08T12:09:35.043Z,44.40
2018-09-08T12:12:03.346Z,43.10
2018-09-08T12:14:31.700Z,42.70
2018-09-08T12:17:00.097Z,41.90
2018-09-08T12:19:28.433Z,42.30
2018-09-08T12:21:56.732Z,42.10
2018-09-08T12:24:25.057Z,41.00
2018-09-08T12:26:53.361Z,41.70
2018-09-08T12:29:21.702Z,41.20
2018-09-08T12:31:50.013Z,41.30
2018-09-08T12:34:18.358Z,41.00
2018-09-08T12:36:46.668Z,40.30
2018-09-08T12:39:14.996Z,39.80
2018-09-08T12:41:43.305Z,40.00
2018-09-08T12:44:11.641Z,38.90
2018-09-08T12:46:39.945Z,38.90
2018-09-08T12:49:08.277Z,39.50
2018-09-08T12:51:36.574Z,38.50
2018-09-08T12:54:04.906Z,37.40
2018-09-08T12:56:33.215Z,38.00
2018-09-08T12:59:01.547Z,37.60
2018-09-08T13:01:29.897Z,37.70
2018-09-08T13:03:58.247Z,37.50
2018-09-08T13:06:26.551Z,37.20
2018-09-08T13:08:54.898Z,37.40
2018-09-08T13:11:23.216Z,36.90
2018-09-08T13:13:51.540Z,37.10
2018-09-08T13:16:19.850Z,35.90
2018-09-08T13:18:48.190Z,35.10
2018-09-08T13:21:16.509Z,35.00
2018-09-08T13:23:44.846Z,35.00
2018-09-08T13:26:13.161Z,35.80
2018-09-08T13:28:41.489Z,35.90
2018-09-08T13:31:09.806Z,35.80
2018-09-08T13:33:38.134Z,34.70
2018-09-08T13:36:06.461Z,34.80
2018-09-08T13:38:34.785Z,35.70
2018-09-08T13:41:03.094Z,35.30
2018-09-08T13:43:31.410Z,35.40
2018-09-08T13:45:59.768Z,35.90
2018-09-08T13:48:28.098Z,36.10
2018-09-08T13:50:56.428Z,35.50
2018-09-08T13:53:24.776Z,35.30
2018-09-08T13:55:53.093Z,35.50
2018-09-08T13:58:21.472Z,35.30
2018-09-08T14:00:49.806Z,34.50
2018-09-08T14:03:18.130Z,34.70
2018-09-08T14:05:46.457Z,35.10
2018-09-08T14:08:15.973Z,35.30
2018-09-08T14:10:45.326Z,36.20
2018-09-08T14:13:13.641Z,36.70
2018-09-08T14:15:42.056Z,36.90
2018-09-08T14:18:10.378Z,36.80
2018-09-08T14:20:38.708Z,37.30
2018-09-08T14:23:07.034Z,36.00
2018-09-08T14:25:35.408Z,35.60
2018-09-08T14:28:03.726Z,36.00
2018-09-08T14:30:32.121Z,35.80
2018-09-08T14:33:00.452Z,35.40
2018-09-08T14:35:28.807Z,35.30
2018-09-08T14:37:57.459Z,35.50
2018-09-08T14:40:25.962Z,35.10
2018-09-08T14:42:54.278Z,35.00
2018-09-08T14:45:22.635Z,34.40
2018-09-08T14:47:51.150Z,35.50
2018-09-08T14:50:19.478Z,36.20
2018-09-08T14:52:47.802Z,36.10
2018-09-08T14:55:16.125Z,36.40
2018-09-08T14:57:44.450Z,36.20
2018-09-08T15:00:12.785Z,35.70
2018-09-08T15:02:41.097Z,35.80
2018-09-08T15:05:09.531Z,35.30
2018-09-08T15:07:37.776Z,35.10
2018-09-08T15:10:06.308Z,35.30
2018-09-08T15:12:34.622Z,35.20
2018-09-08T15:15:02.969Z,35.40
2018-09-08T15:17:31.289Z,35.60
2018-09-08T15:19:59.644Z,35.30
2018-09-08T15:22:27.977Z,35.30
2018-09-08T15:24:56.313Z,34.80
2018-09-08T15:27:24.634Z,35.40
2018-09-08T15:29:52.968Z,35.60
2018-09-08T15:32:21.274Z,35.60
2018-09-08T15:34:49.601Z,36.20
2018-09-08T15:37:17.905Z,36.10
2018-09-08T15:39:46.242Z,35.80
2018-09-08T15:42:14.574Z,35.70
2018-09-08T15:44:42.906Z,36.10
2018-09-08T15:47:11.234Z,36.20
2018-09-08T15:49:39.552Z,37.00
2018-09-08T15:52:07.967Z,36.60
2018-09-08T15:54:36.268Z,37.00
2018-09-08T15:57:04.602Z,36.50
2018-09-08T15:59:32.923Z,37.10
2018-09-08T16:02:01.261Z,37.60
2018-09-08T16:04:29.623Z,38.10
2018-09-08T16:09:32.666Z,37.80
2018-09-08T16:12:01.096Z,37.80
2018-09-08T16:17:04.169Z,37.50
2018-09-08T16:19:32.478Z,37.40
2018-09-08T16:22:00.829Z,37.50
2018-09-08T16:24:29.126Z,38.30
2018-09-08T16:26:57.445Z,38.50
2018-09-08T16:29:25.791Z,38.50
2018-09-08T16:31:54.106Z,38.50
2018-09-08T16:34:22.419Z,38.70
2018-09-08T16:36:50.981Z,39.00
2018-09-08T16:39:19.293Z,39.00
2018-09-08T16:41:47.649Z,38.60
2018-09-08T16:44:15.992Z,38.90
2018-09-08T16:46:44.312Z,39.00
2018-09-08T16:49:12.628Z,39.00
2018-09-08T16:51:40.985Z,39.30
2018-09-08T16:54:09.285Z,38.70
2018-09-08T16:56:37.634Z,38.40
2018-09-08T16:59:05.957Z,38.20
2018-09-08T17:01:34.288Z,38.80
2018-09-08T17:04:02.605Z,39.20
2018-09-08T17:06:30.949Z,39.10
2018-09-08T17:08:59.369Z,39.50
2018-09-08T17:11:27.701Z,39.40
2018-09-08T17:13:56.012Z,39.90
2018-09-08T17:16:24.347Z,40.50
2018-09-08T17:18:52.658Z,40.40
2018-09-08T17:21:20.985Z,40.60
2018-09-08T17:23:49.325Z,40.80
2018-09-08T17:26:17.690Z,40.80
2018-09-08T17:28:45.981Z,41.10
2018-09-08T17:31:14.337Z,41.30
2018-09-08T17:33:42.647Z,41.00
2018-09-08T17:36:10.969Z,41.20
2018-09-08T17:38:39.339Z,41.70
2018-09-08T17:41:07.688Z,41.60
2018-09-08T17:43:39.065Z,41.90
2018-09-08T17:46:07.389Z,42.20
2018-09-08T17:48:35.696Z,42.50
2018-09-08T17:51:04.030Z,43.30
2018-09-08T17:53:32.363Z,43.30
2018-09-08T17:56:00.702Z,42.90
2018-09-08T17:58:29.025Z,43.00
2018-09-08T18:00:57.360Z,43.30
2018-09-08T18:03:25.660Z,44.30
2018-09-08T18:05:54.030Z,45.00
2018-09-08T18:08:25.874Z,44.60
2018-09-08T18:10:57.574Z,44.70
2018-09-08T18:13:26.333Z,45.20
2018-09-08T18:15:54.657Z,45.70
2018-09-08T18:18:23.249Z,45.90
2018-09-08T18:20:51.982Z,46.30
2018-09-08T18:23:20.297Z,46.40
2018-09-08T18:25:48.631Z,46.60
2018-09-08T18:28:16.961Z,46.80
2018-09-08T18:30:45.282Z,47.10
2018-09-08T18:33:13.615Z,47.40
2018-09-08T18:35:41.993Z,47.90
2018-09-08T18:38:10.322Z,47.50
2018-09-08T18:40:38.633Z,47.40
2018-09-08T18:43:07.097Z,47.90
2018-09-08T18:45:35.401Z,47.90
2018-09-08T18:48:03.829Z,48.30
2018-09-08T18:50:32.137Z,48.50
2018-09-08T18:53:00.461Z,48.60
2018-09-08T18:55:28.779Z,48.50
2018-09-08T18:57:57.138Z,48.90
2018-09-08T19:00:25.445Z,48.90
2018-09-08T19:02:53.773Z,49.00
2018-09-08T19:05:22.093Z,49.20
2018-09-08T19:07:50.429Z,49.50
2018-09-08T19:10:18.800Z,49.80
2018-09-08T19:12:47.136Z,50.10
2018-09-08T19:15:16.077Z,50.20
2018-09-08T19:17:44.792Z,50.00
2018-09-08T19:20:18.602Z,50.00
2018-09-08T19:22:47.209Z,50.30
2018-09-08T19:25:15.513Z,50.60
2018-09-08T19:27:43.856Z,50.80
2018-09-08T19:30:12.167Z,51.40
2018-09-08T19:32:40.496Z,51.60
2018-09-08T19:35:14.145Z,52.10
2018-09-08T19:37:42.476Z,52.30
2018-09-08T19:40:16.104Z,52.00
2018-09-08T19:42:44.505Z,51.90
2018-09-08T19:45:12.793Z,52.50
2018-09-08T19:47:46.580Z,52.80
2018-09-08T19:50:14.896Z,53.10
2018-09-08T19:52:48.680Z,53.00
2018-09-08T19:55:16.989Z,52.90
2018-09-08T19:57:57.293Z,53.10
2018-09-08T20:00:25.617Z,53.40
2018-09-08T20:02:53.966Z,53.20
2018-09-08T20:05:22.265Z,52.90
2018-09-08T20:07:50.601Z,53.20
2018-09-08T20:10:18.930Z,53.20
2018-09-08T20:12:47.278Z,53.60
2018-09-08T20:15:15.585Z,54.20
2018-09-08T20:17:43.911Z,54.30
2018-09-08T20:20:12.231Z,55.40
2018-09-08T20:22:40.573Z,55.00
2018-09-08T20:25:08.882Z,54.80
2018-09-08T20:27:37.217Z,55.00
2018-09-08T20:30:06.348Z,55.40
2018-09-08T20:32:34.673Z,55.60
2018-09-08T20:35:03.079Z,55.50
2018-09-08T20:37:31.369Z,55.50
2018-09-08T20:39:59.693Z,55.70
2018-09-08T20:42:28.034Z,55.80
2018-09-08T20:44:56.345Z,55.80
2018-09-08T20:47:24.681Z,56.10
2018-09-08T20:49:53.021Z,55.90
2018-09-08T20:52:21.343Z,56.20
2018-09-08T20:54:49.649Z,56.90
2018-09-08T20:57:17.980Z,56.70
2018-09-08T20:59:46.292Z,56.70
2018-09-08T21:02:14.637Z,57.30
2018-09-08T21:04:42.945Z,57.30
2018-09-08T21:07:11.288Z,57.30
2018-09-08T21:09:40.427Z,57.50
2018-09-08T21:12:08.861Z,57.30
2018-09-08T21:14:37.945Z,57.20
2018-09-08T21:17:06.559Z,57.30
2018-09-08T21:19:34.975Z,57.60
2018-09-08T21:22:03.256Z,57.90
2018-09-08T21:24:31.595Z,57.90
2018-09-08T21:27:00.021Z,57.50
2018-09-08T21:29:28.386Z,57.60
2018-09-08T21:31:56.716Z,57.70
2018-09-08T21:34:25.118Z,57.70
2018-09-08T21:36:53.516Z,57.40
2018-09-08T21:39:21.836Z,57.40
2018-09-08T21:41:50.225Z,57.60
2018-09-08T21:44:18.513Z,57.60
2018-09-08T21:46:46.832Z,57.50
2018-09-08T21:49:15.156Z,57.40
2018-09-08T21:51:43.458Z,57.50
2018-09-08T21:54:11.785Z,57.40
2018-09-08T21:56:40.108Z,57.80
2018-09-08T21:59:08.437Z,57.90
2018-09-08T22:01:36.744Z,57.70
2018-09-08T22:04:05.086Z,58.00
2018-09-08T22:06:33.404Z,58.20
2018-09-08T22:09:01.760Z,58.20
2018-09-08T22:11:30.068Z,58.20
2018-09-08T22:13:58.407Z,58.40
2018-09-08T22:16:26.726Z,57.90
2018-09-08T22:18:55.069Z,58.00
2018-09-08T22:21:23.397Z,57.90
2018-09-08T22:23:51.736Z,58.10
2018-09-08T22:26:20.046Z,57.20
2018-09-08T22:28:48.376Z,57.50
2018-09-08T22:31:16.685Z,57.50
2018-09-08T22:33:45.021Z,57.50
2018-09-08T22:36:13.345Z,57.50
2018-09-08T22:38:41.718Z,57.10
2018-09-08T22:41:10.017Z,57.10
2018-09-08T22:43:38.345Z,57.20
2018-09-08T22:46:06.777Z,57.10
2018-09-08T22:48:35.113Z,56.90
2018-09-08T22:51:03.422Z,57.10
2018-09-08T22:53:31.748Z,57.00
2018-09-08T22:56:00.069Z,57.50
2018-09-08T22:58:28.393Z,57.30
2018-09-08T23:00:56.688Z,56.90
2018-09-08T23:03:25.037Z,56.80
2018-09-08T23:05:53.430Z,56.80
2018-09-08T23:08:21.776Z,56.90
2018-09-08T23:10:50.085Z,57.40
2018-09-08T23:13:18.421Z,57.40
2018-09-08T23:15:46.737Z,57.30
2018-09-08T23:18:15.068Z,57.40
2018-09-08T23:20:43.398Z,57.70
2018-09-08T23:23:11.731Z,58.00
2018-09-08T23:25:40.071Z,58.50
2018-09-08T23:28:08.504Z,58.70
2018-09-08T23:30:36.861Z,58.70
2018-09-08T23:33:05.189Z,58.90
2018-09-08T23:35:33.577Z,59.10
2018-09-08T23:38:01.897Z,59.40
2018-09-08T23:40:30.257Z,59.50
2018-09-08T23:42:58.564Z,59.90
2018-09-08T23:45:26.904Z,60.20
2018-09-08T23:47:55.234Z,60.50
2018-09-08T23:50:23.577Z,60.80
2018-09-08T23:52:51.898Z,61.20
2018-09-08T23:55:20.244Z,61.30
2018-09-08T23:57:48.562Z,61.40
